sensor_id;sensor_type;location;lat;lon;timestamp;temperature;humidity
74376;HTU21D;62812;55.188;61.302;2023-02-14T00:00:19;-5.56;72.26
74376;HTU21D;62812;55.188;61.302;2023-02-14T00:02:47;-5.55;71.84
74376;HTU21D;62812;55.188;61.302;2023-02-14T00:05:13;-5.55;71.77
74376;HTU21D;62812;55.188;61.302;2023-02-14T00:07:40;-5.55;71.88
74376;HTU21D;62812;55.188;61.302;2023-02-14T00:10:08;-5.56;71.65
74376;HTU21D;62812;55.188;61.302;2023-02-14T00:12:34;-5.58;71.71
74376;HTU21D;62812;55.188;61.302;2023-02-14T00:15:03;-5.56;71.71
74376;HTU21D;62812;55.188;61.302;2023-02-14T00:17:47;-5.55;71.44
74376;HTU21D;62812;55.188;61.302;2023-02-14T00:20:14;-5.54;71.52
74376;HTU21D;62812;55.188;61.302;2023-02-14T00:22:40;-5.57;71.63
74376;HTU21D;62812;55.188;61.302;2023-02-14T00:25:07;-5.56;70.75
74376;HTU21D;62812;55.188;61.302;2023-02-14T00:27:33;-5.52;71.53
74376;HTU21D;62812;55.188;61.302;2023-02-14T00:30:01;-5.53;71.69
74376;HTU21D;62812;55.188;61.302;2023-02-14T00:32:28;-5.53;71.48
74376;HTU21D;62812;55.188;61.302;2023-02-14T00:34:55;-5.52;71.06
74376;HTU21D;62812;55.188;61.302;2023-02-14T00:37:22;-5.55;71.09
74376;HTU21D;62812;55.188;61.302;2023-02-14T00:39:48;-5.59;71.24
74376;HTU21D;62812;55.188;61.302;2023-02-14T00:42:15;-5.62;71.32
74376;HTU21D;62812;55.188;61.302;2023-02-14T00:44:41;-5.65;71.31
74376;HTU21D;62812;55.188;61.302;2023-02-14T00:47:09;-5.63;70.99
74376;HTU21D;62812;55.188;61.302;2023-02-14T00:49:35;-5.67;71.13
74376;HTU21D;62812;55.188;61.302;2023-02-14T00:52:02;-5.65;70.81
74376;HTU21D;62812;55.188;61.302;2023-02-14T00:54:28;-5.67;71.06
74376;HTU21D;62812;55.188;61.302;2023-02-14T00:56:55;-5.70;70.93
74376;HTU21D;62812;55.188;61.302;2023-02-14T00:59:21;-5.76;71.00
74376;HTU21D;62812;55.188;61.302;2023-02-14T01:01:47;-5.79;71.07
74376;HTU21D;62812;55.188;61.302;2023-02-14T01:04:15;-5.83;71.06
74376;HTU21D;62812;55.188;61.302;2023-02-14T01:06:41;-5.86;71.16
74376;HTU21D;62812;55.188;61.302;2023-02-14T01:09:08;-5.91;71.45
74376;HTU21D;62812;55.188;61.302;2023-02-14T01:11:34;-5.92;71.67
74376;HTU21D;62812;55.188;61.302;2023-02-14T01:14:01;-5.93;71.55
74376;HTU21D;62812;55.188;61.302;2023-02-14T01:16:28;-5.94;71.61
74376;HTU21D;62812;55.188;61.302;2023-02-14T01:18:54;-5.97;71.74
74376;HTU21D;62812;55.188;61.302;2023-02-14T01:21:25;-5.98;71.61
74376;HTU21D;62812;55.188;61.302;2023-02-14T01:23:53;-5.96;71.51
74376;HTU21D;62812;55.188;61.302;2023-02-14T01:26:20;-5.97;71.77
74376;HTU21D;62812;55.188;61.302;2023-02-14T01:28:47;-5.96;71.67
74376;HTU21D;62812;55.188;61.302;2023-02-14T01:31:16;-5.98;71.55
74376;HTU21D;62812;55.188;61.302;2023-02-14T01:33:44;-6.00;71.73
74376;HTU21D;62812;55.188;61.302;2023-02-14T01:36:16;-6.02;71.99
74376;HTU21D;62812;55.188;61.302;2023-02-14T01:38:44;-6.04;72.16
74376;HTU21D;62812;55.188;61.302;2023-02-14T01:41:10;-6.03;72.21
74376;HTU21D;62812;55.188;61.302;2023-02-14T01:43:56;-6.01;72.22
74376;HTU21D;62812;55.188;61.302;2023-02-14T01:46:23;-6.01;72.29
74376;HTU21D;62812;55.188;61.302;2023-02-14T01:48:53;-6.00;72.25
74376;HTU21D;62812;55.188;61.302;2023-02-14T01:51:21;-5.99;72.32
74376;HTU21D;62812;55.188;61.302;2023-02-14T01:53:51;-5.99;72.36
74376;HTU21D;62812;55.188;61.302;2023-02-14T01:56:21;-6.00;72.54
74376;HTU21D;62812;55.188;61.302;2023-02-14T01:58:51;-6.01;72.38
74376;HTU21D;62812;55.188;61.302;2023-02-14T02:01:18;-5.97;72.31
74376;HTU21D;62812;55.188;61.302;2023-02-14T02:03:49;-5.97;72.01
74376;HTU21D;62812;55.188;61.302;2023-02-14T02:06:19;-5.94;72.13
74376;HTU21D;62812;55.188;61.302;2023-02-14T02:08:54;-5.97;72.16
74376;HTU21D;62812;55.188;61.302;2023-02-14T02:11:24;-5.97;72.05
74376;HTU21D;62812;55.188;61.302;2023-02-14T02:13:51;-5.96;71.61
74376;HTU21D;62812;55.188;61.302;2023-02-14T02:22:55;-5.97;70.88
74376;HTU21D;62812;55.188;61.302;2023-02-14T02:25:44;-5.96;70.42
74376;HTU21D;62812;55.188;61.302;2023-02-14T02:28:45;-6.00;70.26
74376;HTU21D;62812;55.188;61.302;2023-02-14T02:31:44;-6.05;70.64
74376;HTU21D;62812;55.188;61.302;2023-02-14T02:37:27;-6.14;70.92
74376;HTU21D;62812;55.188;61.302;2023-02-14T02:40:06;-6.18;70.85
74376;HTU21D;62812;55.188;61.302;2023-02-14T02:42:47;-6.21;71.03
74376;HTU21D;62812;55.188;61.302;2023-02-14T02:45:23;-6.28;71.06
74376;HTU21D;62812;55.188;61.302;2023-02-14T02:47:54;-6.33;71.19
74376;HTU21D;62812;55.188;61.302;2023-02-14T02:50:25;-6.36;71.47
74376;HTU21D;62812;55.188;61.302;2023-02-14T02:53:18;-6.37;71.32
74376;HTU21D;62812;55.188;61.302;2023-02-14T02:55:50;-6.44;71.11
74376;HTU21D;62812;55.188;61.302;2023-02-14T02:58:39;-6.37;71.48
74376;HTU21D;62812;55.188;61.302;2023-02-14T03:01:10;-6.37;71.37
74376;HTU21D;62812;55.188;61.302;2023-02-14T03:03:39;-6.42;71.37
74376;HTU21D;62812;55.188;61.302;2023-02-14T03:06:25;-6.43;71.38
74376;HTU21D;62812;55.188;61.302;2023-02-14T03:08:53;-6.43;71.55
74376;HTU21D;62812;55.188;61.302;2023-02-14T03:11:26;-6.45;71.34
74376;HTU21D;62812;55.188;61.302;2023-02-14T03:14:18;-6.45;71.15
74376;HTU21D;62812;55.188;61.302;2023-02-14T03:16:58;-6.47;71.13
74376;HTU21D;62812;55.188;61.302;2023-02-14T03:19:46;-6.52;71.16
74376;HTU21D;62812;55.188;61.302;2023-02-14T03:22:43;-6.53;70.94
74376;HTU21D;62812;55.188;61.302;2023-02-14T03:25:23;-6.56;71.33
74376;HTU21D;62812;55.188;61.302;2023-02-14T03:27:55;-6.58;71.32
74376;HTU21D;62812;55.188;61.302;2023-02-14T03:30:30;-6.56;71.33
74376;HTU21D;62812;55.188;61.302;2023-02-14T03:33:04;-6.59;71.24
74376;HTU21D;62812;55.188;61.302;2023-02-14T03:35:36;-6.58;70.93
74376;HTU21D;62812;55.188;61.302;2023-02-14T03:38:08;-6.58;70.82
74376;HTU21D;62812;55.188;61.302;2023-02-14T03:40:40;-6.57;70.92
74376;HTU21D;62812;55.188;61.302;2023-02-14T03:43:09;-6.61;71.00
74376;HTU21D;62812;55.188;61.302;2023-02-14T03:45:41;-6.61;70.83
74376;HTU21D;62812;55.188;61.302;2023-02-14T03:48:11;-6.61;70.81
74376;HTU21D;62812;55.188;61.302;2023-02-14T03:50:40;-6.65;70.91
74376;HTU21D;62812;55.188;61.302;2023-02-14T03:53:09;-6.70;71.13
74376;HTU21D;62812;55.188;61.302;2023-02-14T03:55:42;-6.67;71.14
74376;HTU21D;62812;55.188;61.302;2023-02-14T03:58:14;-6.62;71.06
74376;HTU21D;62812;55.188;61.302;2023-02-14T04:00:42;-6.59;70.90
74376;HTU21D;62812;55.188;61.302;2023-02-14T04:03:13;-6.53;70.74
74376;HTU21D;62812;55.188;61.302;2023-02-14T04:05:40;-6.45;70.66
74376;HTU21D;62812;55.188;61.302;2023-02-14T04:08:09;-6.31;70.01
74376;HTU21D;62812;55.188;61.302;2023-02-14T04:10:38;-6.24;69.93
74376;HTU21D;62812;55.188;61.302;2023-02-14T04:13:06;-6.13;69.68
74376;HTU21D;62812;55.188;61.302;2023-02-14T04:15:33;-5.98;69.45
74376;HTU21D;62812;55.188;61.302;2023-02-14T04:17:59;-5.84;68.31
74376;HTU21D;62812;55.188;61.302;2023-02-14T04:20:44;-5.72;68.05
74376;HTU21D;62812;55.188;61.302;2023-02-14T04:23:11;-5.62;67.90
74376;HTU21D;62812;55.188;61.302;2023-02-14T04:25:41;-5.53;67.39
74376;HTU21D;62812;55.188;61.302;2023-02-14T04:28:08;-5.47;67.60
74376;HTU21D;62812;55.188;61.302;2023-02-14T04:30:34;-5.39;66.82
74376;HTU21D;62812;55.188;61.302;2023-02-14T04:33:00;-5.35;66.81
74376;HTU21D;62812;55.188;61.302;2023-02-14T04:35:30;-5.33;66.72
74376;HTU21D;62812;55.188;61.302;2023-02-14T04:37:56;-5.20;66.08
74376;HTU21D;62812;55.188;61.302;2023-02-14T04:40:23;-5.20;65.93
74376;HTU21D;62812;55.188;61.302;2023-02-14T04:42:57;-5.16;66.63
74376;HTU21D;62812;55.188;61.302;2023-02-14T04:45:26;-5.09;65.95
74376;HTU21D;62812;55.188;61.302;2023-02-14T04:47:52;-5.05;66.23
74376;HTU21D;62812;55.188;61.302;2023-02-14T04:50:19;-5.00;66.51
74376;HTU21D;62812;55.188;61.302;2023-02-14T04:52:48;-4.87;66.54
74376;HTU21D;62812;55.188;61.302;2023-02-14T04:55:14;-4.76;65.57
74376;HTU21D;62812;55.188;61.302;2023-02-14T04:57:41;-4.65;65.42
74376;HTU21D;62812;55.188;61.302;2023-02-14T05:00:13;-4.58;65.27
74376;HTU21D;62812;55.188;61.302;2023-02-14T05:02:42;-4.46;65.52
74376;HTU21D;62812;55.188;61.302;2023-02-14T05:05:09;-4.39;65.33
74376;HTU21D;62812;55.188;61.302;2023-02-14T05:07:35;-4.29;64.66
74376;HTU21D;62812;55.188;61.302;2023-02-14T05:10:02;-4.24;64.78
74376;HTU21D;62812;55.188;61.302;2023-02-14T05:12:28;-4.29;64.29
74376;HTU21D;62812;55.188;61.302;2023-02-14T05:14:55;-4.31;64.42
74376;HTU21D;62812;55.188;61.302;2023-02-14T05:17:24;-4.35;65.12
74376;HTU21D;62812;55.188;61.302;2023-02-14T05:19:50;-4.29;65.04
74376;HTU21D;62812;55.188;61.302;2023-02-14T05:22:16;-4.28;64.88
74376;HTU21D;62812;55.188;61.302;2023-02-14T05:24:43;-4.17;65.21
74376;HTU21D;62812;55.188;61.302;2023-02-14T05:27:10;-4.06;65.25
74376;HTU21D;62812;55.188;61.302;2023-02-14T05:29:37;-3.94;64.70
74376;HTU21D;62812;55.188;61.302;2023-02-14T05:32:03;-3.92;64.00
74376;HTU21D;62812;55.188;61.302;2023-02-14T05:34:31;-3.85;63.92
74376;HTU21D;62812;55.188;61.302;2023-02-14T05:36:58;-3.89;63.64
74376;HTU21D;62812;55.188;61.302;2023-02-14T05:39:26;-3.84;63.90
74376;HTU21D;62812;55.188;61.302;2023-02-14T05:41:52;-3.86;63.22
74376;HTU21D;62812;55.188;61.302;2023-02-14T05:44:19;-3.81;63.32
74376;HTU21D;62812;55.188;61.302;2023-02-14T05:46:45;-3.69;62.62
74376;HTU21D;62812;55.188;61.302;2023-02-14T05:49:12;-3.65;62.98
74376;HTU21D;62812;55.188;61.302;2023-02-14T05:51:39;-3.57;62.21
74376;HTU21D;62812;55.188;61.302;2023-02-14T05:54:06;-3.58;61.88
74376;HTU21D;62812;55.188;61.302;2023-02-14T05:56:32;-3.49;61.87
74376;HTU21D;62812;55.188;61.302;2023-02-14T05:59:00;-3.46;61.31
74376;HTU21D;62812;55.188;61.302;2023-02-14T06:01:26;-3.27;61.34
74376;HTU21D;62812;55.188;61.302;2023-02-14T06:03:53;-3.25;60.19
74376;HTU21D;62812;55.188;61.302;2023-02-14T06:06:19;-3.16;60.14
74376;HTU21D;62812;55.188;61.302;2023-02-14T06:08:47;-3.11;61.56
74376;HTU21D;62812;55.188;61.302;2023-02-14T06:11:13;-3.26;60.49
74376;HTU21D;62812;55.188;61.302;2023-02-14T06:13:40;-3.39;61.08
74376;HTU21D;62812;55.188;61.302;2023-02-14T06:16:06;-3.51;62.05
74376;HTU21D;62812;55.188;61.302;2023-02-14T06:18:33;-3.40;62.08
74376;HTU21D;62812;55.188;61.302;2023-02-14T06:20:59;-3.40;61.86
74376;HTU21D;62812;55.188;61.302;2023-02-14T06:23:28;-3.32;62.05
74376;HTU21D;62812;55.188;61.302;2023-02-14T06:25:56;-3.32;61.68
74376;HTU21D;62812;55.188;61.302;2023-02-14T06:28:22;-3.27;62.08
74376;HTU21D;62812;55.188;61.302;2023-02-14T06:30:49;-3.21;62.04
74376;HTU21D;62812;55.188;61.302;2023-02-14T06:33:15;-3.09;61.74
74376;HTU21D;62812;55.188;61.302;2023-02-14T06:35:41;-3.04;61.18
74376;HTU21D;62812;55.188;61.302;2023-02-14T06:38:08;-3.04;61.79
74376;HTU21D;62812;55.188;61.302;2023-02-14T06:40:34;-2.97;61.26
74376;HTU21D;62812;55.188;61.302;2023-02-14T06:43:03;-2.83;61.18
74376;HTU21D;62812;55.188;61.302;2023-02-14T06:45:29;-2.88;61.31
74376;HTU21D;62812;55.188;61.302;2023-02-14T06:47:56;-2.96;61.88
74376;HTU21D;62812;55.188;61.302;2023-02-14T06:50:22;-3.02;61.97
74376;HTU21D;62812;55.188;61.302;2023-02-14T06:52:49;-3.07;62.47
74376;HTU21D;62812;55.188;61.302;2023-02-14T06:55:16;-3.08;62.70
74376;HTU21D;62812;55.188;61.302;2023-02-14T06:57:43;-3.06;62.60
74376;HTU21D;62812;55.188;61.302;2023-02-14T07:00:12;-3.11;62.97
74376;HTU21D;62812;55.188;61.302;2023-02-14T07:02:40;-3.08;62.74
74376;HTU21D;62812;55.188;61.302;2023-02-14T07:05:06;-2.98;62.60
74376;HTU21D;62812;55.188;61.302;2023-02-14T07:07:33;-2.95;62.25
74376;HTU21D;62812;55.188;61.302;2023-02-14T07:09:59;-2.82;62.24
74376;HTU21D;62812;55.188;61.302;2023-02-14T07:12:25;-2.74;61.68
74376;HTU21D;62812;55.188;61.302;2023-02-14T07:14:52;-2.67;61.85
74376;HTU21D;62812;55.188;61.302;2023-02-14T07:17:20;-2.60;60.78
74376;HTU21D;62812;55.188;61.302;2023-02-14T07:19:46;-2.61;61.31
74376;HTU21D;62812;55.188;61.302;2023-02-14T07:22:13;-2.48;61.02
74376;HTU21D;62812;55.188;61.302;2023-02-14T07:24:39;-2.49;61.34
74376;HTU21D;62812;55.188;61.302;2023-02-14T07:27:06;-2.47;60.45
74376;HTU21D;62812;55.188;61.302;2023-02-14T07:29:32;-2.46;61.12
74376;HTU21D;62812;55.188;61.302;2023-02-14T07:31:59;-2.36;60.93
74376;HTU21D;62812;55.188;61.302;2023-02-14T07:34:27;-2.17;60.83
74376;HTU21D;62812;55.188;61.302;2023-02-14T07:36:53;-2.06;60.25
74376;HTU21D;62812;55.188;61.302;2023-02-14T07:39:19;-2.00;59.12
74376;HTU21D;62812;55.188;61.302;2023-02-14T07:41:46;-2.12;59.32
74376;HTU21D;62812;55.188;61.302;2023-02-14T07:44:14;-2.08;59.92
74376;HTU21D;62812;55.188;61.302;2023-02-14T07:46:40;-2.00;58.98
74376;HTU21D;62812;55.188;61.302;2023-02-14T07:49:11;-1.95;59.15
74376;HTU21D;62812;55.188;61.302;2023-02-14T07:51:38;-1.95;59.23
74376;HTU21D;62812;55.188;61.302;2023-02-14T07:54:05;-2.00;60.20
74376;HTU21D;62812;55.188;61.302;2023-02-14T07:56:32;-2.01;59.77
74376;HTU21D;62812;55.188;61.302;2023-02-14T07:58:58;-1.99;60.09
74376;HTU21D;62812;55.188;61.302;2023-02-14T08:01:25;-1.86;60.62
74376;HTU21D;62812;55.188;61.302;2023-02-14T08:03:51;-1.77;59.30
74376;HTU21D;62812;55.188;61.302;2023-02-14T08:06:21;-1.65;59.08
74376;HTU21D;62812;55.188;61.302;2023-02-14T08:08:48;-1.63;58.82
74376;HTU21D;62812;55.188;61.302;2023-02-14T08:11:15;-1.72;58.67
74376;HTU21D;62812;55.188;61.302;2023-02-14T08:14:02;-1.52;59.25
74376;HTU21D;62812;55.188;61.302;2023-02-14T08:16:28;-1.41;59.10
74376;HTU21D;62812;55.188;61.302;2023-02-14T08:18:55;-1.34;57.59
74376;HTU21D;62812;55.188;61.302;2023-02-14T08:21:21;-1.20;57.79
74376;HTU21D;62812;55.188;61.302;2023-02-14T08:23:49;-0.99;58.13
74376;HTU21D;62812;55.188;61.302;2023-02-14T08:26:15;-1.04;57.16
74376;HTU21D;62812;55.188;61.302;2023-02-14T08:28:42;-0.99;57.51
74376;HTU21D;62812;55.188;61.302;2023-02-14T08:31:09;-0.95;57.93
74376;HTU21D;62812;55.188;61.302;2023-02-14T08:33:36;-0.84;56.82
74376;HTU21D;62812;55.188;61.302;2023-02-14T08:36:05;-0.68;56.30
74376;HTU21D;62812;55.188;61.302;2023-02-14T08:38:32;-0.62;55.14
74376;HTU21D;62812;55.188;61.302;2023-02-14T08:41:01;-0.51;56.23
74376;HTU21D;62812;55.188;61.302;2023-02-14T08:43:27;-0.40;54.88
74376;HTU21D;62812;55.188;61.302;2023-02-14T08:45:54;-0.31;55.29
74376;HTU21D;62812;55.188;61.302;2023-02-14T08:48:20;-0.22;54.81
74376;HTU21D;62812;55.188;61.302;2023-02-14T08:50:48;-0.20;53.29
74376;HTU21D;62812;55.188;61.302;2023-02-14T08:53:18;-0.00;54.40
74376;HTU21D;62812;55.188;61.302;2023-02-14T08:55:44;-0.06;53.29
74376;HTU21D;62812;55.188;61.302;2023-02-14T08:58:12;-0.20;52.57
74376;HTU21D;62812;55.188;61.302;2023-02-14T09:00:38;-0.32;53.05
74376;HTU21D;62812;55.188;61.302;2023-02-14T09:03:05;-0.39;53.90
74376;HTU21D;62812;55.188;61.302;2023-02-14T09:05:32;-0.52;54.26
74376;HTU21D;62812;55.188;61.302;2023-02-14T09:08:00;-0.54;54.20
74376;HTU21D;62812;55.188;61.302;2023-02-14T09:10:26;-0.59;54.32
74376;HTU21D;62812;55.188;61.302;2023-02-14T09:12:53;-0.61;54.97
74376;HTU21D;62812;55.188;61.302;2023-02-14T09:15:21;-0.42;54.20
74376;HTU21D;62812;55.188;61.302;2023-02-14T09:17:47;-0.31;53.42
74376;HTU21D;62812;55.188;61.302;2023-02-14T09:20:15;-0.17;52.07
74376;HTU21D;62812;55.188;61.302;2023-02-14T09:22:41;-0.10;53.01
74376;HTU21D;62812;55.188;61.302;2023-02-14T09:25:09;0.07;52.03
74376;HTU21D;62812;55.188;61.302;2023-02-14T09:27:36;-0.03;51.11
74376;HTU21D;62812;55.188;61.302;2023-02-14T09:30:03;0.14;53.22
74376;HTU21D;62812;55.188;61.302;2023-02-14T09:32:32;0.06;49.07
74376;HTU21D;62812;55.188;61.302;2023-02-14T09:34:58;0.09;50.88
74376;HTU21D;62812;55.188;61.302;2023-02-14T09:37:43;0.24;49.02
74376;HTU21D;62812;55.188;61.302;2023-02-14T09:40:31;0.10;49.33
74376;HTU21D;62812;55.188;61.302;2023-02-14T09:43:02;0.01;48.80
74376;HTU21D;62812;55.188;61.302;2023-02-14T09:45:31;-0.08;49.21
74376;HTU21D;62812;55.188;61.302;2023-02-14T09:48:02;-0.15;49.44
74376;HTU21D;62812;55.188;61.302;2023-02-14T09:50:36;-0.24;51.11
74376;HTU21D;62812;55.188;61.302;2023-02-14T09:53:21;-0.19;50.05
74376;HTU21D;62812;55.188;61.302;2023-02-14T09:55:56;-0.11;52.94
74376;HTU21D;62812;55.188;61.302;2023-02-14T09:58:28;0.03;46.54
74376;HTU21D;62812;55.188;61.302;2023-02-14T10:01:00;-0.25;47.86
74376;HTU21D;62812;55.188;61.302;2023-02-14T10:03:41;-0.09;51.14
74376;HTU21D;62812;55.188;61.302;2023-02-14T10:06:17;0.10;49.83
74376;HTU21D;62812;55.188;61.302;2023-02-14T10:08:56;0.01;47.16
74376;HTU21D;62812;55.188;61.302;2023-02-14T10:11:31;-0.25;49.24
74376;HTU21D;62812;55.188;61.302;2023-02-14T10:14:03;-0.19;48.05
74376;HTU21D;62812;55.188;61.302;2023-02-14T10:16:38;-0.23;48.02
74376;HTU21D;62812;55.188;61.302;2023-02-14T10:19:17;-0.39;47.49
74376;HTU21D;62812;55.188;61.302;2023-02-14T10:21:49;-0.36;49.52
74376;HTU21D;62812;55.188;61.302;2023-02-14T10:24:22;-0.42;50.44
74376;HTU21D;62812;55.188;61.302;2023-02-14T10:26:52;-0.34;49.95
74376;HTU21D;62812;55.188;61.302;2023-02-14T10:29:23;-0.21;49.27
74376;HTU21D;62812;55.188;61.302;2023-02-14T10:31:53;-0.31;49.18
74376;HTU21D;62812;55.188;61.302;2023-02-14T10:34:32;-0.24;50.08
74376;HTU21D;62812;55.188;61.302;2023-02-14T10:37:12;-0.20;50.36
74376;HTU21D;62812;55.188;61.302;2023-02-14T10:39:57;-0.15;50.66
74376;HTU21D;62812;55.188;61.302;2023-02-14T10:42:32;-0.28;50.40
74376;HTU21D;62812;55.188;61.302;2023-02-14T10:45:13;-0.37;50.60
74376;HTU21D;62812;55.188;61.302;2023-02-14T10:47:46;-0.58;49.24
74376;HTU21D;62812;55.188;61.302;2023-02-14T10:50:20;-0.68;51.23
74376;HTU21D;62812;55.188;61.302;2023-02-14T10:52:54;-0.94;52.04
74376;HTU21D;62812;55.188;61.302;2023-02-14T10:55:30;-1.03;50.63
74376;HTU21D;62812;55.188;61.302;2023-02-14T10:58:02;-1.18;51.77
74376;HTU21D;62812;55.188;61.302;2023-02-14T11:00:31;-0.97;51.82
74376;HTU21D;62812;55.188;61.302;2023-02-14T11:03:00;-1.15;49.60
74376;HTU21D;62812;55.188;61.302;2023-02-14T11:05:34;-1.45;50.57
74376;HTU21D;62812;55.188;61.302;2023-02-14T11:08:12;-1.65;51.13
74376;HTU21D;62812;55.188;61.302;2023-02-14T11:10:39;-1.94;51.33
74376;HTU21D;62812;55.188;61.302;2023-02-14T11:13:26;-2.09;52.02
74376;HTU21D;62812;55.188;61.302;2023-02-14T11:15:53;-2.23;52.45
74376;HTU21D;62812;55.188;61.302;2023-02-14T11:18:21;-2.23;53.61
74376;HTU21D;62812;55.188;61.302;2023-02-14T11:21:00;-2.18;52.52
74376;HTU21D;62812;55.188;61.302;2023-02-14T11:23:31;-2.05;52.72
74376;HTU21D;62812;55.188;61.302;2023-02-14T11:25:59;-2.12;52.24
74376;HTU21D;62812;55.188;61.302;2023-02-14T11:28:29;-2.15;55.43
74376;HTU21D;62812;55.188;61.302;2023-02-14T11:30:55;-2.16;52.72
74376;HTU21D;62812;55.188;61.302;2023-02-14T11:33:31;-2.24;52.48
74376;HTU21D;62812;55.188;61.302;2023-02-14T11:36:00;-2.39;52.94
74376;HTU21D;62812;55.188;61.302;2023-02-14T11:38:30;-2.57;53.59
74376;HTU21D;62812;55.188;61.302;2023-02-14T11:40:57;-2.63;53.94
74376;HTU21D;62812;55.188;61.302;2023-02-14T11:43:32;-2.66;53.91
74376;HTU21D;62812;55.188;61.302;2023-02-14T11:46:13;-2.82;53.98
74376;HTU21D;62812;55.188;61.302;2023-02-14T11:48:54;-2.74;54.58
74376;HTU21D;62812;55.188;61.302;2023-02-14T11:51:35;-2.67;54.73
74376;HTU21D;62812;55.188;61.302;2023-02-14T11:54:28;-2.50;54.94
74376;HTU21D;62812;55.188;61.302;2023-02-14T11:57:00;-2.51;53.90
74376;HTU21D;62812;55.188;61.302;2023-02-14T11:59:29;-2.35;55.48
74376;HTU21D;62812;55.188;61.302;2023-02-14T12:01:59;-2.06;53.56
74376;HTU21D;62812;55.188;61.302;2023-02-14T12:04:31;-1.90;55.25
74376;HTU21D;62812;55.188;61.302;2023-02-14T12:07:21;-1.79;52.22
74376;HTU21D;62812;55.188;61.302;2023-02-14T12:10:07;-1.78;54.88
74376;HTU21D;62812;55.188;61.302;2023-02-14T12:12:34;-1.70;54.22
74376;HTU21D;62812;55.188;61.302;2023-02-14T12:15:22;-1.70;52.76
74376;HTU21D;62812;55.188;61.302;2023-02-14T12:17:55;-1.94;52.65
74376;HTU21D;62812;55.188;61.302;2023-02-14T12:20:34;-2.31;54.38
74376;HTU21D;62812;55.188;61.302;2023-02-14T12:23:04;-2.31;53.77
74376;HTU21D;62812;55.188;61.302;2023-02-14T12:25:39;-2.65;55.09
74376;HTU21D;62812;55.188;61.302;2023-02-14T12:28:13;-2.76;55.10
74376;HTU21D;62812;55.188;61.302;2023-02-14T12:30:43;-3.06;55.70
74376;HTU21D;62812;55.188;61.302;2023-02-14T12:33:16;-3.23;55.91
74376;HTU21D;62812;55.188;61.302;2023-02-14T12:35:52;-3.48;57.27
74376;HTU21D;62812;55.188;61.302;2023-02-14T12:38:28;-3.71;57.57
74376;HTU21D;62812;55.188;61.302;2023-02-14T12:41:07;-3.95;58.68
74376;HTU21D;62812;55.188;61.302;2023-02-14T12:43:44;-4.10;59.09
74376;HTU21D;62812;55.188;61.302;2023-02-14T12:52:52;-4.39;62.07
74376;HTU21D;62812;55.188;61.302;2023-02-14T12:55:38;-4.41;60.48
74376;HTU21D;62812;55.188;61.302;2023-02-14T12:58:17;-4.51;61.07
74376;HTU21D;62812;55.188;61.302;2023-02-14T13:00:55;-4.56;60.40
74376;HTU21D;62812;55.188;61.302;2023-02-14T13:03:45;-4.69;60.82
74376;HTU21D;62812;55.188;61.302;2023-02-14T13:06:19;-4.73;60.88
74376;HTU21D;62812;55.188;61.302;2023-02-14T13:09:04;-4.81;60.93
74376;HTU21D;62812;55.188;61.302;2023-02-14T13:11:43;-5.00;61.09
74376;HTU21D;62812;55.188;61.302;2023-02-14T13:14:26;-5.02;61.53
74376;HTU21D;62812;55.188;61.302;2023-02-14T13:16:59;-5.01;61.10
74376;HTU21D;62812;55.188;61.302;2023-02-14T13:19:35;-5.12;61.47
74376;HTU21D;62812;55.188;61.302;2023-02-14T13:22:08;-5.28;61.79
74376;HTU21D;62812;55.188;61.302;2023-02-14T13:24:40;-5.34;62.50
74376;HTU21D;62812;55.188;61.302;2023-02-14T13:27:12;-5.43;62.42
74376;HTU21D;62812;55.188;61.302;2023-02-14T13:29:44;-5.39;62.43
74376;HTU21D;62812;55.188;61.302;2023-02-14T13:32:14;-5.37;62.63
74376;HTU21D;62812;55.188;61.302;2023-02-14T13:34:44;-5.34;62.40
74376;HTU21D;62812;55.188;61.302;2023-02-14T13:37:15;-5.40;61.89
74376;HTU21D;62812;55.188;61.302;2023-02-14T13:39:45;-5.53;62.20
74376;HTU21D;62812;55.188;61.302;2023-02-14T13:42:50;-5.69;62.48
74376;HTU21D;62812;55.188;61.302;2023-02-14T13:48:29;-5.91;62.73
74376;HTU21D;62812;55.188;61.302;2023-02-14T13:50:57;-5.91;62.81
74376;HTU21D;62812;55.188;61.302;2023-02-14T13:53:30;-6.00;64.90
74376;HTU21D;62812;55.188;61.302;2023-02-14T13:55:58;-5.91;63.42
74376;HTU21D;62812;55.188;61.302;2023-02-14T13:58:26;-5.92;63.16
74376;HTU21D;62812;55.188;61.302;2023-02-14T14:00:53;-6.05;63.64
74376;HTU21D;62812;55.188;61.302;2023-02-14T14:03:54;-6.14;64.35
74376;HTU21D;62812;55.188;61.302;2023-02-14T14:06:24;-6.12;63.54
74376;HTU21D;62812;55.188;61.302;2023-02-14T14:08:52;-6.14;63.65
74376;HTU21D;62812;55.188;61.302;2023-02-14T14:14:31;-6.44;63.83
74376;HTU21D;62812;55.188;61.302;2023-02-14T14:19:45;-6.51;63.83
74376;HTU21D;62812;55.188;61.302;2023-02-14T14:22:13;-6.59;63.44
74376;HTU21D;62812;55.188;61.302;2023-02-14T14:24:51;-6.60;63.53
74376;HTU21D;62812;55.188;61.302;2023-02-14T14:27:20;-6.66;63.54
74376;HTU21D;62812;55.188;61.302;2023-02-14T14:29:51;-6.73;63.87
74376;HTU21D;62812;55.188;61.302;2023-02-14T14:32:19;-6.80;64.24
74376;HTU21D;62812;55.188;61.302;2023-02-14T14:34:50;-6.88;64.38
74376;HTU21D;62812;55.188;61.302;2023-02-14T14:37:18;-6.95;64.68
74376;HTU21D;62812;55.188;61.302;2023-02-14T14:39:50;-6.94;64.81
74376;HTU21D;62812;55.188;61.302;2023-02-14T14:42:17;-6.85;64.43
74376;HTU21D;62812;55.188;61.302;2023-02-14T14:44:46;-6.83;65.59
74376;HTU21D;62812;55.188;61.302;2023-02-14T14:47:18;-6.92;64.50
74376;HTU21D;62812;55.188;61.302;2023-02-14T14:49:46;-7.04;64.72
74376;HTU21D;62812;55.188;61.302;2023-02-14T14:52:25;-7.11;65.29
74376;HTU21D;62812;55.188;61.302;2023-02-14T14:54:52;-7.13;65.92
74376;HTU21D;62812;55.188;61.302;2023-02-14T14:57:19;-7.11;65.48
74376;HTU21D;62812;55.188;61.302;2023-02-14T14:59:46;-7.30;65.70
74376;HTU21D;62812;55.188;61.302;2023-02-14T15:02:22;-7.19;65.78
74376;HTU21D;62812;55.188;61.302;2023-02-14T15:04:49;-7.21;65.98
74376;HTU21D;62812;55.188;61.302;2023-02-14T15:07:20;-7.37;65.77
74376;HTU21D;62812;55.188;61.302;2023-02-14T15:09:52;-7.42;66.21
74376;HTU21D;62812;55.188;61.302;2023-02-14T15:12:21;-7.59;66.40
74376;HTU21D;62812;55.188;61.302;2023-02-14T15:15:21;-7.68;66.48
74376;HTU21D;62812;55.188;61.302;2023-02-14T15:17:49;-7.83;67.01
74376;HTU21D;62812;55.188;61.302;2023-02-14T15:20:18;-8.00;67.34
74376;HTU21D;62812;55.188;61.302;2023-02-14T15:22:47;-8.00;67.43
74376;HTU21D;62812;55.188;61.302;2023-02-14T15:25:18;-8.01;67.37
74376;HTU21D;62812;55.188;61.302;2023-02-14T15:27:46;-8.11;67.39
74376;HTU21D;62812;55.188;61.302;2023-02-14T15:30:21;-8.21;67.88
74376;HTU21D;62812;55.188;61.302;2023-02-14T15:32:51;-8.10;67.30
74376;HTU21D;62812;55.188;61.302;2023-02-14T15:35:21;-8.22;67.10
74376;HTU21D;62812;55.188;61.302;2023-02-14T15:37:54;-8.18;67.21
74376;HTU21D;62812;55.188;61.302;2023-02-14T15:40:37;-8.20;67.09
74376;HTU21D;62812;55.188;61.302;2023-02-14T15:43:25;-8.26;67.04
74376;HTU21D;62812;55.188;61.302;2023-02-14T15:45:58;-8.37;68.47
74376;HTU21D;62812;55.188;61.302;2023-02-14T15:48:28;-8.15;67.46
74376;HTU21D;62812;55.188;61.302;2023-02-14T15:50:56;-8.21;66.43